createdAt,value
2023-03-31T00:01:30.661Z,8.15
2023-03-31T00:04:33.755Z,9.30
2023-03-31T00:07:38.196Z,9.43
2023-03-31T00:10:46.705Z,10.30
2023-03-31T00:13:49.279Z,8.25
2023-03-31T00:16:51.900Z,9.25
2023-03-31T00:20:00.507Z,9.48
2023-03-31T00:23:03.108Z,9.43
2023-03-31T00:26:06.349Z,9.63
2023-03-31T00:29:11.990Z,9.07
2023-03-31T00:32:14.822Z,9.40
2023-03-31T00:35:17.498Z,9.23
2023-03-31T00:38:22.064Z,8.88
2023-03-31T00:41:26.831Z,8.63
2023-03-31T00:44:31.083Z,8.75
2023-03-31T00:47:34.909Z,8.77
2023-03-31T00:50:44.341Z,8.48
2023-03-31T00:53:55.506Z,7.95
2023-03-31T00:56:58.790Z,8.70
2023-03-31T01:00:31.119Z,8.68
2023-03-31T01:03:34.506Z,8.73
2023-03-31T01:06:51.401Z,8.57
2023-03-31T01:09:59.424Z,7.93
2023-03-31T01:13:03.849Z,8.20
2023-03-31T01:16:06.829Z,7.65
2023-03-31T01:19:22.082Z,8.40
2023-03-31T01:22:46.057Z,8.45
2023-03-31T01:26:20.881Z,7.93
2023-03-31T01:30:08.211Z,7.82
2023-03-31T01:33:16.803Z,8.20
2023-03-31T01:36:35.060Z,8.80
2023-03-31T01:40:22.336Z,8.40
2023-03-31T01:43:54.150Z,8.07
2023-03-31T01:47:22.946Z,7.97
2023-03-31T01:50:39.478Z,8.23
2023-03-31T01:54:03.246Z,7.75
2023-03-31T01:57:12.481Z,7.45
2023-03-31T02:00:19.934Z,8.25
2023-03-31T02:03:35.378Z,8.25
2023-03-31T02:06:43.237Z,7.82
2023-03-31T02:09:53.706Z,8.00
2023-03-31T02:12:58.594Z,8.40
2023-03-31T02:16:05.764Z,7.93
2023-03-31T02:19:10.733Z,7.78
2023-03-31T02:22:16.119Z,7.70
2023-03-31T02:25:23.902Z,7.30
2023-03-31T02:28:30.350Z,7.45
2023-03-31T02:31:48.178Z,6.95
2023-03-31T02:34:50.913Z,6.57
2023-03-31T02:37:53.935Z,6.15
2023-03-31T02:40:56.732Z,6.20
2023-03-31T02:44:01.749Z,5.60
2023-03-31T02:50:09.996Z,4.90
2023-03-31T02:53:49.554Z,5.30
2023-03-31T02:56:58.181Z,5.03
2023-03-31T03:00:14.224Z,5.10
2023-03-31T03:03:38.810Z,5.55
2023-03-31T03:06:53.655Z,5.88
2023-03-31T03:10:09.435Z,5.10
2023-03-31T03:13:14.892Z,5.60
2023-03-31T03:16:35.480Z,5.45
2023-03-31T03:19:38.126Z,5.38
2023-03-31T03:22:41.776Z,6.10
2023-03-31T03:25:45.084Z,5.63
2023-03-31T03:28:49.142Z,5.55
2023-03-31T03:31:51.860Z,4.90
2023-03-31T03:34:54.411Z,4.82
2023-03-31T03:37:57.375Z,4.93
2023-03-31T03:41:00.001Z,5.07
2023-03-31T03:44:03.060Z,4.43
2023-03-31T03:47:06.093Z,4.38
2023-03-31T03:50:09.743Z,4.35
2023-03-31T03:53:13.237Z,4.20
2023-03-31T03:56:16.102Z,3.88
2023-03-31T03:59:18.727Z,3.92
2023-03-31T04:02:21.472Z,4.22
2023-03-31T04:05:24.530Z,3.90
2023-03-31T04:08:27.383Z,3.25
2023-03-31T04:11:31.489Z,3.63
2023-03-31T04:14:34.144Z,4.50
2023-03-31T04:17:37.925Z,4.30
2023-03-31T04:20:40.525Z,3.58
2023-03-31T04:23:46.881Z,4.15
2023-03-31T04:26:51.078Z,3.92
2023-03-31T04:29:57.074Z,4.32
2023-03-31T04:33:04.249Z,4.55
2023-03-31T04:36:18.091Z,4.90
2023-03-31T04:39:27.136Z,5.15
2023-03-31T04:42:29.773Z,4.43
2023-03-31T04:45:33.992Z,6.88
2023-03-31T04:48:37.361Z,5.65
2023-03-31T04:51:40.427Z,5.32
2023-03-31T04:54:43.027Z,5.10
2023-03-31T04:57:45.662Z,4.97
2023-03-31T05:00:48.253Z,4.65
2023-03-31T05:03:51.372Z,4.60
2023-03-31T05:06:54.250Z,4.40
2023-03-31T05:09:56.908Z,4.00
2023-03-31T05:12:59.437Z,4.43
2023-03-31T05:16:10.038Z,4.50
2023-03-31T05:19:13.113Z,4.35
2023-03-31T05:22:20.564Z,4.70
2023-03-31T05:25:23.810Z,4.82
2023-03-31T05:28:27.015Z,4.97
2023-03-31T05:31:29.719Z,5.80
2023-03-31T05:34:32.308Z,5.35
2023-03-31T05:37:34.908Z,6.22
2023-03-31T05:40:38.868Z,13.15
2023-03-31T05:43:43.343Z,6.18
2023-03-31T05:46:46.240Z,5.65
2023-03-31T05:49:53.266Z,4.93
2023-03-31T05:52:56.400Z,4.95
2023-03-31T05:56:04.097Z,5.18
2023-03-31T05:59:07.147Z,5.00
2023-03-31T06:02:13.681Z,5.38
2023-03-31T06:05:16.263Z,6.20
2023-03-31T06:08:19.571Z,5.30
2023-03-31T06:11:24.353Z,5.30
2023-03-31T06:14:28.218Z,5.22
2023-03-31T06:17:30.810Z,5.80
2023-03-31T06:20:33.377Z,5.35
2023-03-31T06:23:35.991Z,5.30
2023-03-31T06:26:38.549Z,8.00
2023-03-31T06:29:41.233Z,8.60
2023-03-31T06:32:43.929Z,8.77
2023-03-31T06:35:46.601Z,7.82
2023-03-31T06:38:51.248Z,7.80
2023-03-31T06:41:54.232Z,9.23
2023-03-31T06:45:02.636Z,9.73
2023-03-31T06:48:06.800Z,9.73
2023-03-31T06:51:10.361Z,9.25
2023-03-31T06:54:12.997Z,8.30
2023-03-31T06:57:15.700Z,8.82
2023-03-31T07:00:21.516Z,8.88
2023-03-31T07:03:25.866Z,9.30
2023-03-31T07:06:28.500Z,9.35
2023-03-31T07:09:31.104Z,8.68
2023-03-31T07:12:34.144Z,8.60
2023-03-31T07:15:38.368Z,8.52
2023-03-31T07:18:42.217Z,9.07
2023-03-31T07:21:45.841Z,7.97
2023-03-31T07:24:49.039Z,7.43
2023-03-31T07:27:51.764Z,8.65
2023-03-31T07:30:55.012Z,8.25
2023-03-31T07:33:58.654Z,8.50
2023-03-31T07:37:01.387Z,7.13
2023-03-31T07:40:06.022Z,7.88
2023-03-31T07:43:08.976Z,7.55
2023-03-31T07:46:23.883Z,6.82
2023-03-31T07:49:26.541Z,7.18
2023-03-31T07:52:29.151Z,7.30
2023-03-31T07:55:31.701Z,7.63
2023-03-31T07:58:36.470Z,6.90
2023-03-31T08:01:39.137Z,7.00
2023-03-31T08:04:43.083Z,7.63
2023-03-31T08:07:49.233Z,7.15
2023-03-31T08:10:52.147Z,7.13
2023-03-31T08:13:54.894Z,6.60
2023-03-31T08:16:58.081Z,6.57
2023-03-31T08:20:04.427Z,6.20
2023-03-31T08:23:11.610Z,6.28
2023-03-31T08:26:19.923Z,6.13
2023-03-31T08:29:23.358Z,7.20
2023-03-31T08:32:25.962Z,6.38
2023-03-31T08:35:28.538Z,6.28
2023-03-31T08:38:31.464Z,6.10
2023-03-31T08:41:52.397Z,5.35
2023-03-31T08:45:03.717Z,5.65
2023-03-31T08:48:20.567Z,5.60
2023-03-31T08:51:32.459Z,5.78
2023-03-31T08:54:41.018Z,5.68
2023-03-31T08:57:52.932Z,5.28
2023-03-31T09:01:02.101Z,5.10
2023-03-31T09:04:16.862Z,5.13
2023-03-31T09:07:35.562Z,5.60
2023-03-31T09:10:56.611Z,4.93
2023-03-31T09:14:08.109Z,4.60
2023-03-31T09:17:24.251Z,4.55
2023-03-31T09:20:41.131Z,4.70
2023-03-31T09:23:46.848Z,4.25
2023-03-31T09:26:57.080Z,4.20
2023-03-31T09:30:26.155Z,4.60
2023-03-31T09:33:34.029Z,5.03
2023-03-31T09:36:36.732Z,4.93
2023-03-31T09:39:42.829Z,4.85
2023-03-31T09:42:54.416Z,4.50
2023-03-31T09:46:09.349Z,4.20
2023-03-31T09:49:17.154Z,4.57
2023-03-31T09:52:32.991Z,4.22
2023-03-31T09:55:57.031Z,4.53
2023-03-31T09:59:03.916Z,4.25
2023-03-31T10:02:42.159Z,4.05
2023-03-31T10:05:58.957Z,4.00
2023-03-31T10:09:05.385Z,4.05
2023-03-31T10:12:16.301Z,4.00
2023-03-31T10:15:22.140Z,3.50
2023-03-31T10:18:34.657Z,3.70
2023-03-31T10:21:38.795Z,3.95
2023-03-31T10:24:46.293Z,3.50
2023-03-31T10:27:53.452Z,3.47
2023-03-31T10:31:01.488Z,3.85
2023-03-31T10:34:08.214Z,3.80
2023-03-31T10:37:18.681Z,3.50
2023-03-31T10:40:27.477Z,3.55
2023-03-31T10:43:41.620Z,3.83
2023-03-31T10:46:52.514Z,3.17
2023-03-31T10:49:57.885Z,3.65
2023-03-31T10:53:14.054Z,3.85
2023-03-31T10:56:28.892Z,4.00
2023-03-31T10:59:43.536Z,3.60
2023-03-31T11:03:12.076Z,3.78
2023-03-31T11:06:36.727Z,3.70
2023-03-31T11:09:45.391Z,3.70
2023-03-31T11:13:16.220Z,3.47
2023-03-31T11:16:27.848Z,3.50
2023-03-31T11:19:43.503Z,3.70
2023-03-31T11:23:37.806Z,3.80
2023-03-31T11:27:17.251Z,4.00
2023-03-31T11:30:35.649Z,3.60
2023-03-31T11:33:58.560Z,4.03
2023-03-31T11:37:17.223Z,3.10
2023-03-31T11:40:41.487Z,3.20
2023-03-31T11:43:54.375Z,3.40
2023-03-31T11:47:01.840Z,3.63
2023-03-31T11:50:12.453Z,3.28
2023-03-31T11:53:21.159Z,3.72
2023-03-31T11:56:30.513Z,3.58
2023-03-31T11:59:34.910Z,3.65
2023-03-31T12:03:11.707Z,3.80
2023-03-31T12:06:20.216Z,3.90
2023-03-31T12:09:30.595Z,3.20
2023-03-31T12:12:39.980Z,3.92
2023-03-31T12:16:01.256Z,3.40
2023-03-31T12:19:16.257Z,3.65
2023-03-31T12:22:24.973Z,3.65
2023-03-31T12:25:39.824Z,3.50
2023-03-31T12:28:44.673Z,3.42
2023-03-31T12:31:49.153Z,3.25
2023-03-31T12:34:58.758Z,3.47
2023-03-31T12:38:27.799Z,3.80
2023-03-31T12:41:36.247Z,3.50
2023-03-31T12:45:00.111Z,3.42
2023-03-31T12:48:05.832Z,3.40
2023-03-31T12:51:31.536Z,3.55
2023-03-31T12:55:00.414Z,3.78
2023-03-31T12:58:33.103Z,3.67
2023-03-31T13:02:15.202Z,3.28
2023-03-31T13:05:36.905Z,3.55
2023-03-31T13:08:52.567Z,3.60
2023-03-31T13:11:55.392Z,3.55
2023-03-31T13:15:00.497Z,3.83
2023-03-31T13:18:05.670Z,3.97
2023-03-31T13:21:09.642Z,3.65
2023-03-31T13:24:12.977Z,3.83
2023-03-31T13:27:35.755Z,3.72
2023-03-31T13:30:43.974Z,4.28
2023-03-31T13:34:02.064Z,3.83
2023-03-31T13:37:08.314Z,3.42
2023-03-31T13:40:17.053Z,3.20
2023-03-31T13:43:51.649Z,3.55
2023-03-31T13:47:15.725Z,3.35
2023-03-31T13:50:46.216Z,3.42
2023-03-31T13:54:26.410Z,3.30
2023-03-31T13:57:58.292Z,3.15
2023-03-31T14:01:16.533Z,3.00
2023-03-31T14:04:57.947Z,2.90
2023-03-31T14:08:14.772Z,3.13
2023-03-31T14:11:29.679Z,2.83
2023-03-31T14:14:32.299Z,2.80
2023-03-31T14:17:40.875Z,3.15
2023-03-31T14:21:03.382Z,2.88
2023-03-31T14:24:25.019Z,3.50
2023-03-31T14:27:39.207Z,3.30
2023-03-31T14:30:52.877Z,2.88
2023-03-31T14:34:12.225Z,3.03
2023-03-31T14:37:17.957Z,3.33
2023-03-31T14:40:20.875Z,2.97
2023-03-31T14:43:35.886Z,3.03
2023-03-31T14:46:39.730Z,2.80
2023-03-31T14:49:43.192Z,3.33
2023-03-31T14:52:52.633Z,3.15
2023-03-31T14:56:03.270Z,3.38
2023-03-31T14:59:08.218Z,3.40
2023-03-31T15:02:19.672Z,2.97
2023-03-31T15:05:31.570Z,3.20
2023-03-31T15:08:37.484Z,3.17
2023-03-31T15:11:40.167Z,3.00
2023-03-31T15:14:58.859Z,3.22
2023-03-31T15:18:02.126Z,3.25
2023-03-31T15:21:05.303Z,4.07
2023-03-31T15:24:08.176Z,3.75
2023-03-31T15:27:23.449Z,3.78
2023-03-31T15:30:32.931Z,3.45
2023-03-31T15:33:41.508Z,3.10
2023-03-31T15:36:45.190Z,3.17
2023-03-31T15:39:48.703Z,3.83
2023-03-31T15:43:06.943Z,3.10
2023-03-31T15:46:24.522Z,3.05
2023-03-31T15:49:28.393Z,3.70
2023-03-31T15:52:35.065Z,3.40
2023-03-31T15:58:47.617Z,3.13
2023-03-31T16:01:51.237Z,3.00
2023-03-31T16:04:59.905Z,3.22
2023-03-31T16:08:03.935Z,3.70
2023-03-31T16:11:14.294Z,3.47
2023-03-31T16:14:22.000Z,3.00
2023-03-31T16:17:33.979Z,3.22
2023-03-31T16:20:40.994Z,3.17
2023-03-31T16:23:45.502Z,2.88
2023-03-31T16:26:49.079Z,3.20
2023-03-31T16:30:26.874Z,3.30
2023-03-31T16:33:31.914Z,3.10
2023-03-31T16:36:35.232Z,2.83
2023-03-31T16:39:37.868Z,3.63
2023-03-31T16:42:40.745Z,2.50
2023-03-31T16:45:48.696Z,3.10
2023-03-31T16:48:53.039Z,2.70
2023-03-31T16:51:55.752Z,2.72
2023-03-31T16:54:58.624Z,2.95
2023-03-31T16:58:03.469Z,2.70
2023-03-31T17:01:07.474Z,2.75
2023-03-31T17:04:10.250Z,3.30
2023-03-31T17:07:13.264Z,2.90
2023-03-31T17:10:17.188Z,2.60
2023-03-31T17:13:24.582Z,2.50
2023-03-31T17:16:36.432Z,2.90
2023-03-31T17:19:53.137Z,2.85
2023-03-31T17:22:55.726Z,2.55
2023-03-31T17:25:59.456Z,3.13
2023-03-31T17:29:02.943Z,2.95
2023-03-31T17:32:07.059Z,3.63
2023-03-31T17:35:11.731Z,3.13
2023-03-31T17:38:15.118Z,3.72
2023-03-31T17:41:19.987Z,3.10
2023-03-31T17:44:23.188Z,3.28
2023-03-31T17:47:26.452Z,3.22
2023-03-31T17:50:29.555Z,3.10
2023-03-31T17:53:32.834Z,4.03
2023-03-31T17:56:35.850Z,3.33
2023-03-31T17:59:39.008Z,3.63
2023-03-31T18:02:43.658Z,3.60
2023-03-31T18:05:46.557Z,3.30
2023-03-31T18:08:49.660Z,3.70
2023-03-31T18:11:54.015Z,3.80
2023-03-31T18:14:57.192Z,3.38
2023-03-31T18:18:01.070Z,4.63
2023-03-31T18:21:09.743Z,4.10
2023-03-31T18:24:14.198Z,4.63
2023-03-31T18:27:17.528Z,3.90
2023-03-31T18:30:21.954Z,3.72
2023-03-31T18:33:25.778Z,3.63
2023-03-31T18:36:29.907Z,3.92
2023-03-31T18:39:33.491Z,3.78
2023-03-31T18:42:37.075Z,4.00
2023-03-31T18:45:40.279Z,3.50
2023-03-31T18:48:44.663Z,3.70
2023-03-31T18:51:48.617Z,3.92
2023-03-31T18:54:56.377Z,4.20
2023-03-31T18:58:01.132Z,4.07
2023-03-31T19:01:05.441Z,4.47
2023-03-31T19:04:09.866Z,4.53
2023-03-31T19:07:14.932Z,4.78
2023-03-31T19:10:21.057Z,4.45
2023-03-31T19:13:25.001Z,4.60
2023-03-31T19:16:29.154Z,3.97
2023-03-31T19:19:32.886Z,3.97
2023-03-31T19:22:37.965Z,3.92
2023-03-31T19:25:41.246Z,4.40
2023-03-31T19:28:44.972Z,4.75
2023-03-31T19:31:49.781Z,4.32
2023-03-31T19:34:55.182Z,4.93
2023-03-31T19:37:59.132Z,3.70
2023-03-31T19:41:04.585Z,2.80
2023-03-31T19:44:07.845Z,2.20
2023-03-31T19:47:12.335Z,2.08
2023-03-31T19:50:15.857Z,2.08
2023-03-31T19:53:20.507Z,2.22
2023-03-31T19:56:26.212Z,2.10
2023-03-31T19:59:29.518Z,2.45
2023-03-31T20:02:33.947Z,2.28
2023-03-31T20:05:37.547Z,2.10
2023-03-31T20:08:44.185Z,2.00
2023-03-31T20:11:52.358Z,2.78
2023-03-31T20:14:56.399Z,2.22
2023-03-31T20:18:00.746Z,2.38
2023-03-31T20:21:09.853Z,2.83
2023-03-31T20:24:19.205Z,2.10
2023-03-31T20:27:26.758Z,2.65
2023-03-31T20:30:30.060Z,2.42
2023-03-31T20:33:34.132Z,2.33
2023-03-31T20:36:37.546Z,2.67
2023-03-31T20:39:46.918Z,3.13
2023-03-31T20:42:50.364Z,3.45
2023-03-31T20:46:02.958Z,4.22
2023-03-31T20:49:07.670Z,2.30
2023-03-31T20:52:10.908Z,2.00
2023-03-31T20:55:13.906Z,2.25
2023-03-31T20:58:21.780Z,1.80
2023-03-31T21:01:29.743Z,2.08
2023-03-31T21:04:32.389Z,5.50
2023-03-31T21:07:34.952Z,3.28
2023-03-31T21:10:45.752Z,2.10
2023-03-31T21:13:48.906Z,1.63
2023-03-31T21:16:51.475Z,4.72
2023-03-31T21:19:54.210Z,2.58
2023-03-31T21:23:00.011Z,1.90
2023-03-31T21:26:04.347Z,2.72
2023-03-31T21:29:07.078Z,2.10
2023-03-31T21:32:09.819Z,2.20
2023-03-31T21:35:12.473Z,2.10
2023-03-31T21:38:15.692Z,2.30
2023-03-31T21:41:24.450Z,2.15
2023-03-31T21:44:28.608Z,3.17
2023-03-31T21:47:31.366Z,2.78
2023-03-31T21:50:34.883Z,2.83
2023-03-31T21:53:37.709Z,3.10
2023-03-31T21:56:40.253Z,2.65
2023-03-31T21:59:43.239Z,2.90
2023-03-31T22:02:46.229Z,2.30
2023-03-31T22:05:49.011Z,1.80
2023-03-31T22:08:52.388Z,1.90
2023-03-31T22:11:55.132Z,2.28
2023-03-31T22:14:57.828Z,2.55
2023-03-31T22:18:01.544Z,1.75
2023-03-31T22:21:13.934Z,1.75
2023-03-31T22:24:16.788Z,1.77
2023-03-31T22:27:19.395Z,2.03
2023-03-31T22:30:23.420Z,2.28
2023-03-31T22:33:25.986Z,1.85
2023-03-31T22:36:28.551Z,1.63
2023-03-31T22:39:31.735Z,1.65
2023-03-31T22:42:34.690Z,1.80
2023-03-31T22:45:40.312Z,1.65
2023-03-31T22:48:44.125Z,1.77
2023-03-31T22:51:49.243Z,1.65
2023-03-31T22:54:52.230Z,1.90
2023-03-31T22:57:55.133Z,1.80
2023-03-31T23:00:58.920Z,1.70
2023-03-31T23:04:02.488Z,1.88
2023-03-31T23:07:07.361Z,2.35
2023-03-31T23:10:11.390Z,1.70
2023-03-31T23:13:13.940Z,1.80
2023-03-31T23:16:23.586Z,1.83
2023-03-31T23:19:26.485Z,2.10
2023-03-31T23:22:29.066Z,2.30
2023-03-31T23:25:33.276Z,1.80
2023-03-31T23:28:38.046Z,1.80
2023-03-31T23:31:41.222Z,2.10
2023-03-31T23:34:44.147Z,2.00
2023-03-31T23:37:46.916Z,2.10
2023-03-31T23:40:49.594Z,2.00
2023-03-31T23:43:52.862Z,2.20
2023-03-31T23:46:55.698Z,2.05
2023-03-31T23:49:58.701Z,2.55
2023-03-31T23:53:02.215Z,3.38
2023-03-31T23:56:08.724Z,2.10
2023-03-31T23:59:11.413Z,2.30
